createdAt,value
2018-08-19T00:01:13.158Z,99.90
2018-08-19T00:03:41.698Z,99.90
2018-08-19T00:06:10.197Z,99.90
2018-08-19T00:08:38.766Z,99.90
2018-08-19T00:11:08.831Z,99.90
2018-08-19T00:13:38.034Z,99.90
2018-08-19T00:16:07.516Z,99.90
2018-08-19T00:18:37.170Z,99.90
2018-08-19T00:21:07.982Z,99.90
2018-08-19T00:23:41.757Z,99.90
2018-08-19T00:26:10.314Z,99.90
2018-08-19T00:28:38.865Z,99.90
2018-08-19T00:31:07.396Z,99.90
2018-08-19T00:33:36.022Z,99.90
2018-08-19T00:36:18.680Z,99.90
2018-08-19T00:38:47.304Z,99.90
2018-08-19T00:41:15.878Z,99.90
2018-08-19T00:43:44.400Z,99.90
2018-08-19T00:46:22.469Z,99.90
2018-08-19T00:48:51.002Z,99.90
2018-08-19T00:51:19.517Z,99.90
2018-08-19T00:53:48.081Z,99.90
2018-08-19T00:56:16.618Z,99.90
2018-08-19T00:58:45.288Z,99.90
2018-08-19T01:01:27.629Z,99.90
2018-08-19T01:03:57.889Z,99.90
2018-08-19T01:06:26.661Z,99.90
2018-08-19T01:08:55.206Z,99.90
2018-08-19T01:11:28.059Z,99.90
2018-08-19T01:13:56.600Z,99.90
2018-08-19T01:16:25.862Z,99.90
2018-08-19T01:19:00.308Z,99.90
2018-08-19T01:21:30.730Z,99.90
2018-08-19T01:24:00.447Z,99.90
2018-08-19T01:26:32.728Z,99.90
2018-08-19T01:29:01.291Z,99.90
2018-08-19T01:31:29.806Z,99.90
2018-08-19T01:33:58.368Z,99.90
2018-08-19T01:36:28.265Z,99.90
2018-08-19T01:38:57.045Z,99.90
2018-08-19T01:41:25.654Z,99.90
2018-08-19T01:44:03.714Z,99.90
2018-08-19T01:46:34.992Z,99.90
2018-08-19T01:49:08.445Z,99.90
2018-08-19T01:51:39.117Z,99.90
2018-08-19T01:54:12.997Z,99.90
2018-08-19T01:56:42.268Z,99.90
2018-08-19T01:59:10.909Z,99.90
2018-08-19T02:01:45.685Z,99.90
2018-08-19T02:04:14.460Z,99.90
2018-08-19T02:06:43.736Z,99.90
2018-08-19T02:09:13.681Z,99.90
2018-08-19T02:11:47.300Z,99.90
2018-08-19T02:14:16.885Z,99.90
2018-08-19T02:16:45.760Z,99.90
2018-08-19T02:19:14.304Z,99.90
2018-08-19T02:21:43.609Z,99.90
2018-08-19T02:24:12.698Z,99.90
2018-08-19T02:26:41.332Z,99.90
2018-08-19T02:29:42.044Z,99.90
2018-08-19T02:32:11.154Z,99.90
2018-08-19T02:34:42.431Z,99.90
2018-08-19T02:37:15.082Z,99.90
2018-08-19T02:39:46.158Z,99.90
2018-08-19T02:42:30.331Z,99.90
2018-08-19T02:45:04.285Z,99.90
2018-08-19T02:47:33.505Z,99.90
2018-08-19T02:50:02.424Z,99.90
2018-08-19T02:52:37.476Z,99.90
2018-08-19T02:55:07.574Z,99.90
2018-08-19T02:57:38.165Z,99.90
2018-08-19T03:00:07.742Z,99.90
2018-08-19T03:02:38.394Z,99.90
2018-08-19T03:05:09.491Z,99.90
2018-08-19T03:07:38.060Z,99.90
2018-08-19T03:10:09.753Z,99.90
2018-08-19T03:12:38.586Z,99.90
2018-08-19T03:15:08.484Z,99.90
2018-08-19T03:17:37.031Z,99.90
2018-08-19T03:20:09.077Z,99.90
2018-08-19T03:22:37.593Z,99.90
2018-08-19T03:25:06.686Z,99.90
2018-08-19T03:27:35.261Z,99.90
2018-08-19T03:30:05.694Z,99.90
2018-08-19T03:32:34.237Z,99.90
2018-08-19T03:35:13.047Z,99.90
2018-08-19T03:37:41.726Z,99.90
2018-08-19T03:40:10.234Z,99.90
2018-08-19T03:42:38.771Z,99.90
2018-08-19T03:45:13.397Z,99.90
2018-08-19T03:47:41.940Z,99.90
2018-08-19T03:50:15.927Z,99.90
2018-08-19T03:52:44.924Z,99.90
2018-08-19T03:55:18.825Z,99.90
2018-08-19T03:57:48.693Z,99.90
2018-08-19T04:00:18.682Z,99.90
2018-08-19T04:02:47.585Z,99.90
2018-08-19T04:05:16.199Z,99.90
2018-08-19T04:07:44.938Z,99.90
2018-08-19T04:10:13.710Z,99.90
2018-08-19T04:12:42.250Z,99.90
2018-08-19T04:15:11.290Z,99.90
2018-08-19T04:17:39.829Z,99.90
2018-08-19T04:20:08.362Z,99.90
2018-08-19T04:22:36.921Z,99.90
2018-08-19T04:25:05.445Z,99.90
2018-08-19T04:27:33.974Z,99.90
2018-08-19T04:30:02.517Z,99.90
2018-08-19T04:32:32.125Z,99.90
2018-08-19T04:35:01.299Z,99.90
2018-08-19T04:37:30.328Z,99.90
2018-08-19T04:40:00.006Z,99.90
2018-08-19T04:42:28.549Z,99.90
2018-08-19T04:44:57.058Z,99.90
2018-08-19T04:47:32.216Z,99.90
2018-08-19T04:50:00.725Z,99.90
2018-08-19T04:52:29.362Z,99.90
2018-08-19T04:54:57.925Z,99.90
2018-08-19T04:57:26.486Z,99.90
2018-08-19T04:59:55.030Z,99.90
2018-08-19T05:02:24.106Z,99.90
2018-08-19T05:04:52.561Z,99.90
2018-08-19T05:07:21.149Z,99.90
2018-08-19T05:09:49.670Z,99.90
2018-08-19T05:12:18.178Z,99.90
2018-08-19T05:14:46.722Z,99.90
2018-08-19T05:17:15.230Z,99.90
2018-08-19T05:19:43.757Z,99.90
2018-08-19T05:22:14.735Z,99.90
2018-08-19T05:24:45.513Z,99.90
2018-08-19T05:27:15.266Z,99.90
2018-08-19T05:29:43.853Z,99.90
2018-08-19T05:32:13.889Z,99.90
2018-08-19T05:34:42.711Z,99.90
2018-08-19T05:37:11.246Z,99.90
2018-08-19T05:39:44.981Z,99.90
2018-08-19T05:42:14.170Z,99.90
2018-08-19T05:44:43.299Z,99.90
2018-08-19T05:47:13.565Z,99.90
2018-08-19T05:49:43.335Z,99.90
2018-08-19T05:52:19.298Z,99.90
2018-08-19T05:54:56.457Z,99.90
2018-08-19T05:57:25.027Z,99.90
2018-08-19T05:59:54.558Z,99.90
2018-08-19T06:02:32.298Z,99.90
2018-08-19T06:05:02.200Z,99.90
2018-08-19T06:07:31.057Z,99.90
2018-08-19T06:09:59.754Z,99.90
2018-08-19T06:12:28.322Z,99.90
2018-08-19T06:14:58.918Z,99.90
2018-08-19T06:17:27.471Z,99.90
2018-08-19T06:19:56.042Z,99.90
2018-08-19T06:22:30.648Z,99.90
2018-08-19T06:24:59.445Z,99.90
2018-08-19T06:28:02.978Z,99.90
2018-08-19T06:30:31.577Z,99.90
2018-08-19T06:33:00.134Z,99.90
2018-08-19T06:35:28.699Z,99.90
2018-08-19T06:37:57.201Z,99.90
2018-08-19T06:40:25.787Z,99.90
2018-08-19T06:42:54.312Z,99.90
2018-08-19T06:45:22.894Z,99.90
2018-08-19T06:47:51.449Z,99.90
2018-08-19T06:50:27.384Z,99.90
2018-08-19T06:52:56.518Z,99.90
2018-08-19T06:55:25.208Z,99.90
2018-08-19T06:57:55.809Z,99.90
2018-08-19T07:00:30.234Z,99.90
2018-08-19T07:03:04.194Z,99.90
2018-08-19T07:05:33.435Z,99.90
2018-08-19T07:08:02.198Z,99.90
2018-08-19T07:10:41.261Z,99.90
2018-08-19T07:13:14.749Z,99.90
2018-08-19T07:15:44.755Z,99.90
2018-08-19T07:18:14.691Z,99.90
2018-08-19T07:20:44.189Z,99.90
2018-08-19T07:23:13.827Z,99.90
2018-08-19T07:25:45.050Z,99.90
2018-08-19T07:28:15.268Z,99.90
2018-08-19T07:30:44.161Z,99.90
2018-08-19T07:33:13.350Z,99.90
2018-08-19T07:35:41.916Z,99.90
2018-08-19T07:38:10.615Z,99.90
2018-08-19T07:40:39.154Z,99.90
2018-08-19T07:43:07.981Z,99.90
2018-08-19T07:45:36.518Z,99.90
2018-08-19T07:48:05.392Z,99.90
2018-08-19T07:50:33.937Z,99.90
2018-08-19T07:53:02.441Z,99.90
2018-08-19T07:55:31.073Z,99.90
2018-08-19T07:57:59.614Z,99.90
2018-08-19T08:00:33.344Z,99.90
2018-08-19T08:03:01.902Z,99.90
2018-08-19T08:05:35.762Z,99.90
2018-08-19T08:08:04.306Z,99.90
2018-08-19T08:10:32.897Z,99.90
2018-08-19T08:13:08.294Z,99.90
2018-08-19T08:15:41.076Z,99.90
2018-08-19T08:18:09.630Z,99.90
2018-08-19T08:20:38.207Z,99.90
2018-08-19T08:23:18.036Z,99.90
2018-08-19T08:25:46.696Z,99.90
2018-08-19T08:28:15.214Z,99.90
2018-08-19T08:30:43.805Z,99.90
2018-08-19T08:33:12.367Z,99.90
2018-08-19T08:35:47.144Z,99.90
2018-08-19T08:38:15.706Z,99.90
2018-08-19T08:40:44.314Z,99.20
2018-08-19T08:43:12.789Z,99.40
2018-08-19T08:45:42.482Z,98.80
2018-08-19T08:48:11.670Z,99.20
2018-08-19T08:50:40.636Z,99.80
2018-08-19T08:53:09.174Z,99.30
2018-08-19T08:55:37.785Z,99.10
2018-08-19T08:58:06.482Z,99.30
2018-08-19T09:00:35.903Z,99.50
2018-08-19T09:03:04.491Z,99.80
2018-08-19T09:05:33.110Z,98.90
2018-08-19T09:08:01.656Z,97.60
2018-08-19T09:10:30.733Z,97.70
2018-08-19T09:12:59.381Z,96.90
2018-08-19T09:15:27.984Z,97.20
2018-08-19T09:17:56.538Z,97.00
2018-08-19T09:20:25.076Z,96.70
2018-08-19T09:22:53.701Z,96.60
2018-08-19T09:25:22.219Z,96.40
2018-08-19T09:27:50.779Z,95.90
2018-08-19T09:30:25.942Z,94.90
2018-08-19T09:32:59.361Z,95.40
2018-08-19T09:35:30.319Z,95.00
2018-08-19T09:38:04.433Z,96.00
2018-08-19T09:40:33.947Z,95.70
2018-08-19T09:43:02.643Z,95.10
2018-08-19T09:45:31.429Z,95.70
2018-08-19T09:48:00.527Z,94.70
2018-08-19T09:50:29.301Z,94.80
2018-08-19T09:52:57.842Z,94.80
2018-08-19T09:55:31.691Z,94.10
2018-08-19T09:58:00.638Z,94.40
2018-08-19T10:00:34.428Z,94.20
2018-08-19T10:03:03.059Z,94.20
2018-08-19T10:05:33.482Z,94.20
2018-08-19T10:08:02.357Z,93.30
2018-08-19T10:10:34.769Z,93.30
2018-08-19T10:13:03.666Z,92.60
2018-08-19T10:15:32.250Z,91.90
2018-08-19T10:18:00.829Z,90.70
2018-08-19T10:20:29.382Z,90.30
2018-08-19T10:22:58.629Z,90.40
2018-08-19T10:25:27.190Z,90.50
2018-08-19T10:27:56.693Z,90.90
2018-08-19T10:30:25.356Z,90.60
2018-08-19T10:33:01.499Z,91.00
2018-08-19T10:35:30.926Z,90.40
2018-08-19T10:38:00.254Z,90.40
2018-08-19T10:40:28.786Z,88.80
2018-08-19T10:43:02.992Z,89.00
2018-08-19T10:45:31.614Z,89.00
2018-08-19T10:48:00.225Z,89.60
2018-08-19T10:50:29.989Z,89.30
2018-08-19T10:52:58.709Z,88.00
2018-08-19T10:55:27.713Z,88.30
2018-08-19T10:57:56.342Z,87.90
2018-08-19T11:00:30.392Z,89.70
2018-08-19T11:03:05.177Z,89.10
2018-08-19T11:05:35.657Z,89.10
2018-08-19T11:08:04.224Z,88.70
2018-08-19T11:10:32.756Z,88.70
2018-08-19T11:13:01.304Z,88.50
2018-08-19T11:15:40.577Z,86.60
2018-08-19T11:18:42.531Z,86.70
2018-08-19T11:21:16.550Z,88.50
2018-08-19T11:23:46.456Z,89.50
2018-08-19T11:26:15.133Z,87.40
2018-08-19T11:28:48.371Z,85.70
2018-08-19T11:31:26.126Z,86.90
2018-08-19T11:34:04.709Z,86.70
2018-08-19T11:36:38.785Z,86.60
2018-08-19T11:39:12.166Z,86.60
2018-08-19T11:41:40.700Z,85.90
2018-08-19T11:44:13.431Z,85.40
2018-08-19T11:46:41.995Z,85.20
2018-08-19T11:49:14.798Z,84.30
2018-08-19T11:51:48.882Z,85.00
2018-08-19T11:54:18.521Z,82.30
2018-08-19T11:56:55.212Z,82.60
2018-08-19T11:59:28.325Z,83.60
2018-08-19T12:01:56.917Z,83.90
2018-08-19T12:04:25.558Z,84.20
2018-08-19T12:06:54.120Z,82.20
2018-08-19T12:09:22.666Z,81.90
2018-08-19T12:11:51.196Z,80.40
2018-08-19T12:14:19.754Z,79.60
2018-08-19T12:16:53.603Z,78.80
2018-08-19T12:19:30.417Z,78.50
2018-08-19T12:22:05.195Z,77.30
2018-08-19T12:24:43.657Z,76.90
2018-08-19T12:27:13.650Z,77.40
2018-08-19T12:29:43.142Z,76.40
2018-08-19T12:32:19.493Z,76.70
2018-08-19T12:34:50.053Z,77.50
2018-08-19T12:37:20.041Z,78.80
2018-08-19T12:39:48.964Z,78.80
2018-08-19T12:42:17.474Z,78.70
2018-08-19T12:44:51.429Z,77.70
2018-08-19T12:47:24.258Z,77.50
2018-08-19T12:49:56.399Z,76.80
2018-08-19T12:52:26.190Z,76.00
2018-08-19T12:55:00.097Z,76.30
2018-08-19T12:57:28.790Z,76.60
2018-08-19T13:00:04.832Z,76.40
2018-08-19T13:02:35.420Z,77.40
2018-08-19T13:05:04.074Z,77.70
2018-08-19T13:07:32.569Z,77.70
2018-08-19T13:10:01.099Z,77.60
2018-08-19T13:12:35.018Z,77.30
2018-08-19T13:15:04.166Z,77.40
2018-08-19T13:17:32.730Z,77.50
2018-08-19T13:20:05.391Z,76.70
2018-08-19T13:22:34.961Z,76.80
2018-08-19T13:25:03.490Z,76.30
2018-08-19T13:27:32.029Z,77.20
2018-08-19T13:30:00.526Z,76.50
2018-08-19T13:32:29.085Z,76.00
2018-08-19T13:34:57.598Z,77.20
2018-08-19T13:37:26.137Z,76.60
2018-08-19T13:39:54.645Z,76.70
2018-08-19T13:42:23.186Z,76.50
2018-08-19T13:44:52.886Z,76.70
2018-08-19T13:47:21.535Z,75.80
2018-08-19T13:49:50.142Z,74.90
2018-08-19T13:52:18.686Z,75.20
2018-08-19T13:55:03.494Z,75.60
2018-08-19T13:57:32.206Z,75.10
2018-08-19T14:00:00.774Z,75.80
2018-08-19T14:02:29.320Z,75.20
2018-08-19T14:04:57.837Z,76.00
2018-08-19T14:07:26.378Z,75.70
2018-08-19T14:09:54.934Z,75.50
2018-08-19T14:12:23.607Z,76.70
2018-08-19T14:14:52.046Z,76.20
2018-08-19T14:17:20.581Z,76.80
2018-08-19T14:19:49.235Z,76.20
2018-08-19T14:22:17.781Z,75.60
2018-08-19T14:24:46.292Z,76.20
2018-08-19T14:27:14.861Z,76.40
2018-08-19T14:29:43.417Z,76.40
2018-08-19T14:32:46.188Z,76.60
2018-08-19T14:35:15.591Z,76.00
2018-08-19T14:37:44.166Z,76.60
2018-08-19T14:40:15.268Z,76.20
2018-08-19T14:42:43.883Z,76.90
2018-08-19T14:45:12.461Z,76.70
2018-08-19T14:47:41.018Z,76.60
2018-08-19T14:50:12.385Z,77.10
2018-08-19T14:52:40.958Z,77.50
2018-08-19T14:55:09.760Z,77.70
2018-08-19T14:57:38.730Z,77.30
2018-08-19T15:00:09.358Z,76.80
2018-08-19T15:02:38.068Z,77.90
2018-08-19T15:05:06.752Z,76.50
2018-08-19T15:07:35.285Z,75.50
2018-08-19T15:10:03.989Z,74.60
2018-08-19T15:12:32.521Z,74.60
2018-08-19T15:15:01.789Z,75.40
2018-08-19T15:17:30.329Z,74.90
2018-08-19T15:19:58.924Z,74.80
2018-08-19T15:22:27.452Z,74.80
2018-08-19T15:24:55.981Z,75.30
2018-08-19T15:27:24.505Z,75.50
2018-08-19T15:29:54.289Z,75.10
2018-08-19T15:32:24.308Z,75.70
2018-08-19T15:34:52.777Z,75.40
2018-08-19T15:37:21.330Z,75.70
2018-08-19T15:39:49.921Z,75.80
2018-08-19T15:42:18.566Z,75.80
2018-08-19T15:44:47.153Z,75.50
2018-08-19T15:47:15.784Z,75.90
2018-08-19T15:49:44.260Z,75.10
2018-08-19T15:52:12.778Z,74.20
2018-08-19T15:54:47.373Z,74.40
2018-08-19T15:57:15.920Z,74.00
2018-08-19T15:59:44.501Z,74.30
2018-08-19T16:02:13.265Z,75.00
2018-08-19T16:04:41.916Z,76.30
2018-08-19T16:07:10.433Z,75.70
2018-08-19T16:09:38.980Z,74.80
2018-08-19T16:12:07.556Z,74.00
2018-08-19T16:14:36.108Z,75.60
2018-08-19T16:17:04.740Z,75.30
2018-08-19T16:19:33.574Z,74.50
2018-08-19T16:22:02.314Z,74.80
2018-08-19T16:24:31.486Z,73.90
2018-08-19T16:27:00.000Z,73.40
2018-08-19T16:29:28.550Z,72.70
2018-08-19T16:31:57.088Z,73.30
2018-08-19T16:34:25.654Z,72.70
2018-08-19T16:36:54.223Z,73.40
2018-08-19T16:39:22.838Z,73.90
2018-08-19T16:41:51.369Z,74.30
2018-08-19T16:44:19.923Z,75.10
2018-08-19T16:46:48.469Z,74.90
2018-08-19T16:49:17.151Z,74.70
2018-08-19T16:51:45.664Z,74.30
2018-08-19T16:54:14.246Z,74.60
2018-08-19T16:56:42.760Z,75.20
2018-08-19T16:59:11.369Z,75.10
2018-08-19T17:01:39.914Z,75.50
2018-08-19T17:04:08.440Z,75.40
2018-08-19T17:06:38.418Z,75.90
2018-08-19T17:09:08.260Z,76.70
2018-08-19T17:11:36.833Z,77.00
2018-08-19T17:14:05.374Z,77.90
2018-08-19T17:16:33.912Z,78.00
2018-08-19T17:19:02.702Z,79.10
2018-08-19T17:21:31.265Z,79.90
2018-08-19T17:23:59.790Z,80.10
2018-08-19T17:26:28.346Z,80.60
2018-08-19T17:28:59.665Z,81.20
2018-08-19T17:31:28.309Z,81.70
2018-08-19T17:33:56.929Z,81.20
2018-08-19T17:36:30.696Z,81.40
2018-08-19T17:39:00.994Z,81.70
2018-08-19T17:41:29.524Z,82.40
2018-08-19T17:44:01.510Z,82.70
2018-08-19T17:46:30.109Z,83.50
2018-08-19T17:48:58.649Z,84.30
2018-08-19T17:51:32.999Z,85.10
2018-08-19T17:54:01.584Z,85.50
2018-08-19T17:56:30.161Z,86.40
2018-08-19T17:58:58.702Z,85.90
2018-08-19T18:01:27.312Z,85.50
2018-08-19T18:03:55.828Z,85.80
2018-08-19T18:06:24.377Z,87.00
2018-08-19T18:08:53.750Z,88.00
2018-08-19T18:11:22.913Z,88.40
2018-08-19T18:13:51.447Z,88.80
2018-08-19T18:16:20.054Z,90.00
2018-08-19T18:18:48.804Z,89.40
2018-08-19T18:21:17.377Z,90.00
2018-08-19T18:23:47.661Z,90.20
2018-08-19T18:26:16.336Z,90.30
2018-08-19T18:28:46.531Z,90.30
2018-08-19T18:31:18.357Z,90.70
2018-08-19T18:33:59.840Z,90.70
2018-08-19T18:36:30.118Z,91.10
2018-08-19T18:38:59.089Z,91.10
2018-08-19T18:41:32.721Z,91.50
2018-08-19T18:44:02.505Z,91.90
2018-08-19T18:46:31.852Z,92.90
2018-08-19T18:49:06.432Z,93.20
2018-08-19T18:51:35.020Z,93.80
2018-08-19T18:54:03.537Z,94.50
2018-08-19T18:56:32.076Z,94.80
2018-08-19T18:59:00.668Z,95.20
2018-08-19T19:01:29.193Z,95.60
2018-08-19T19:03:57.718Z,95.70
2018-08-19T19:06:26.254Z,95.80
2018-08-19T19:08:55.614Z,96.30
2018-08-19T19:11:24.554Z,96.70
2018-08-19T19:13:53.065Z,96.70
2018-08-19T19:16:27.756Z,97.00
2018-08-19T19:18:56.281Z,97.40
2018-08-19T19:21:24.817Z,97.90
2018-08-19T19:23:53.386Z,98.20
2018-08-19T19:26:27.757Z,98.30
2018-08-19T19:28:57.027Z,98.60
2018-08-19T19:31:25.549Z,98.60
2018-08-19T19:34:00.550Z,98.90
2018-08-19T19:36:30.699Z,99.10
2018-08-19T19:38:59.556Z,99.30
2018-08-19T19:41:32.251Z,99.60
2018-08-19T19:45:05.560Z,99.90
2018-08-19T19:47:34.089Z,99.70
2018-08-19T19:50:02.737Z,99.90
2018-08-19T19:52:31.193Z,99.90
2018-08-19T19:54:59.752Z,99.90
2018-08-19T19:57:28.411Z,99.90
2018-08-19T19:59:56.949Z,99.90
2018-08-19T20:02:30.464Z,99.90
2018-08-19T20:04:59.465Z,99.90
2018-08-19T20:07:28.325Z,99.90
2018-08-19T20:09:56.987Z,99.90
2018-08-19T20:12:29.715Z,99.90
2018-08-19T20:15:00.750Z,99.90
2018-08-19T20:17:29.508Z,99.90
2018-08-19T20:19:58.057Z,99.90
2018-08-19T20:22:26.580Z,99.90
2018-08-19T20:24:55.102Z,99.90
2018-08-19T20:27:24.709Z,99.90
2018-08-19T20:29:54.361Z,99.90
2018-08-19T20:32:23.049Z,99.90
2018-08-19T20:34:51.961Z,99.90
2018-08-19T20:37:23.195Z,99.90
2018-08-19T20:39:52.014Z,99.90
2018-08-19T20:42:20.977Z,99.90
2018-08-19T20:44:49.545Z,99.90
2018-08-19T20:47:18.072Z,99.90
2018-08-19T20:49:48.493Z,99.90
2018-08-19T20:52:17.098Z,99.90
2018-08-19T20:54:45.656Z,99.90
2018-08-19T20:57:14.159Z,99.90
2018-08-19T20:59:42.726Z,99.90
2018-08-19T21:02:11.281Z,99.90
2018-08-19T21:04:39.856Z,99.90
2018-08-19T21:07:08.384Z,99.90
2018-08-19T21:09:37.029Z,99.90
2018-08-19T21:12:05.646Z,99.90
2018-08-19T21:14:34.242Z,99.90
2018-08-19T21:17:04.516Z,99.90
2018-08-19T21:19:33.249Z,99.90
2018-08-19T21:22:01.804Z,99.90
2018-08-19T21:24:30.338Z,99.90
2018-08-19T21:27:01.952Z,99.90
2018-08-19T21:29:30.925Z,99.90
2018-08-19T21:31:59.721Z,99.90
2018-08-19T21:34:28.650Z,99.90
2018-08-19T21:36:57.618Z,99.90
2018-08-19T21:39:26.218Z,99.90
2018-08-19T21:41:55.497Z,99.90
2018-08-19T21:44:24.101Z,99.90
2018-08-19T21:46:52.637Z,99.90
2018-08-19T21:49:21.177Z,99.90
2018-08-19T21:51:49.712Z,99.90
2018-08-19T21:54:18.345Z,99.90
2018-08-19T21:56:46.861Z,99.90
2018-08-19T21:59:23.119Z,99.90
2018-08-19T22:02:00.506Z,99.90
2018-08-19T22:04:29.881Z,99.90
2018-08-19T22:06:58.414Z,99.90
2018-08-19T22:09:35.449Z,99.90
2018-08-19T22:12:04.947Z,99.90
2018-08-19T22:14:33.853Z,99.90
2018-08-19T22:17:10.703Z,99.90
2018-08-19T22:19:40.297Z,99.90
2018-08-19T22:22:09.307Z,99.90
2018-08-19T22:24:38.084Z,99.90
2018-08-19T22:27:23.289Z,99.90
2018-08-19T22:29:51.854Z,99.90
2018-08-19T22:32:20.393Z,99.90
2018-08-19T22:34:48.930Z,99.90
2018-08-19T22:37:17.462Z,99.90
2018-08-19T22:39:47.868Z,99.90
2018-08-19T22:42:16.422Z,99.90
2018-08-19T22:44:44.922Z,99.90
2018-08-19T22:47:13.501Z,99.90
2018-08-19T22:49:42.021Z,99.90
2018-08-19T22:52:19.905Z,99.90
2018-08-19T22:54:50.515Z,99.90
2018-08-19T22:57:19.178Z,99.90
2018-08-19T22:59:47.693Z,99.90
2018-08-19T23:02:16.808Z,99.90
2018-08-19T23:04:46.258Z,99.90
2018-08-19T23:07:15.007Z,99.90
2018-08-19T23:09:43.529Z,99.90
2018-08-19T23:12:12.780Z,99.90
2018-08-19T23:14:52.644Z,99.90
2018-08-19T23:17:21.174Z,99.90
2018-08-19T23:19:50.373Z,99.90
2018-08-19T23:22:18.937Z,99.90
2018-08-19T23:24:47.742Z,99.90
2018-08-19T23:27:16.282Z,99.90
2018-08-19T23:29:44.789Z,99.90
2018-08-19T23:32:13.337Z,99.90
2018-08-19T23:34:41.832Z,99.90
2018-08-19T23:37:10.386Z,99.90
2018-08-19T23:39:38.905Z,99.90
2018-08-19T23:42:07.464Z,99.90
2018-08-19T23:44:35.982Z,99.90
2018-08-19T23:47:04.583Z,99.90
2018-08-19T23:49:33.113Z,99.90
2018-08-19T23:52:01.687Z,99.90
2018-08-19T23:54:30.196Z,99.90
2018-08-19T23:56:58.724Z,99.90
2018-08-19T23:59:31.449Z,99.90
